sensor_id;sensor_type;location;lat;lon;timestamp;temperature;humidity
2387;DHT22;49473;50.772;8.768;2023-07-28T00:00:59;16.70;99.90
2387;DHT22;49473;50.772;8.768;2023-07-28T00:03:26;16.70;99.90
2387;DHT22;49473;50.772;8.768;2023-07-28T00:05:53;16.70;99.90
2387;DHT22;49473;50.772;8.768;2023-07-28T00:08:20;16.60;99.90
2387;DHT22;49473;50.772;8.768;2023-07-28T00:10:46;16.60;99.90
2387;DHT22;49473;50.772;8.768;2023-07-28T00:13:13;16.60;99.90
2387;DHT22;49473;50.772;8.768;2023-07-28T00:15:41;16.60;99.90
2387;DHT22;49473;50.772;8.768;2023-07-28T00:18:08;16.50;99.90
2387;DHT22;49473;50.772;8.768;2023-07-28T00:20:35;16.60;99.90
2387;DHT22;49473;50.772;8.768;2023-07-28T00:23:02;16.60;99.90
2387;DHT22;49473;50.772;8.768;2023-07-28T00:25:28;16.50;99.90
2387;DHT22;49473;50.772;8.768;2023-07-28T00:27:55;16.60;99.90
2387;DHT22;49473;50.772;8.768;2023-07-28T00:30:22;16.50;99.90
2387;DHT22;49473;50.772;8.768;2023-07-28T00:32:50;16.60;99.90
2387;DHT22;49473;50.772;8.768;2023-07-28T00:35:17;16.50;99.90
2387;DHT22;49473;50.772;8.768;2023-07-28T00:37:44;16.50;99.90
2387;DHT22;49473;50.772;8.768;2023-07-28T00:40:12;16.40;99.90
2387;DHT22;49473;50.772;8.768;2023-07-28T00:42:38;16.40;99.90
2387;DHT22;49473;50.772;8.768;2023-07-28T00:45:06;16.40;99.90
2387;DHT22;49473;50.772;8.768;2023-07-28T00:47:35;16.40;99.90
2387;DHT22;49473;50.772;8.768;2023-07-28T00:50:04;16.30;99.90
2387;DHT22;49473;50.772;8.768;2023-07-28T00:52:31;16.40;99.90
2387;DHT22;49473;50.772;8.768;2023-07-28T00:54:58;16.30;99.90
2387;DHT22;49473;50.772;8.768;2023-07-28T00:57:25;16.30;99.90
2387;DHT22;49473;50.772;8.768;2023-07-28T00:59:51;16.40;99.90
2387;DHT22;49473;50.772;8.768;2023-07-28T01:02:19;16.30;99.90
2387;DHT22;49473;50.772;8.768;2023-07-28T01:04:47;16.30;99.90
2387;DHT22;49473;50.772;8.768;2023-07-28T01:07:20;16.30;99.90
2387;DHT22;49473;50.772;8.768;2023-07-28T01:10:00;16.30;99.90
2387;DHT22;49473;50.772;8.768;2023-07-28T01:12:28;16.40;99.90
2387;DHT22;49473;50.772;8.768;2023-07-28T01:14:55;16.30;99.90
2387;DHT22;49473;50.772;8.768;2023-07-28T01:17:22;16.30;99.90
2387;DHT22;49473;50.772;8.768;2023-07-28T01:19:49;16.30;99.90
2387;DHT22;49473;50.772;8.768;2023-07-28T01:22:47;16.20;99.90
2387;DHT22;49473;50.772;8.768;2023-07-28T01:25:20;16.30;99.90
2387;DHT22;49473;50.772;8.768;2023-07-28T01:27:51;16.30;99.90
2387;DHT22;49473;50.772;8.768;2023-07-28T01:30:18;16.30;99.90
2387;DHT22;49473;50.772;8.768;2023-07-28T01:32:47;16.30;99.90
2387;DHT22;49473;50.772;8.768;2023-07-28T01:35:14;16.30;99.90
2387;DHT22;49473;50.772;8.768;2023-07-28T01:37:42;16.20;99.90
2387;DHT22;49473;50.772;8.768;2023-07-28T01:40:09;16.20;99.90
2387;DHT22;49473;50.772;8.768;2023-07-28T01:42:36;16.20;99.90
2387;DHT22;49473;50.772;8.768;2023-07-28T01:45:05;16.30;99.90
2387;DHT22;49473;50.772;8.768;2023-07-28T01:47:32;16.30;99.90
2387;DHT22;49473;50.772;8.768;2023-07-28T01:49:59;16.30;99.90
2387;DHT22;49473;50.772;8.768;2023-07-28T01:52:25;16.30;99.90
2387;DHT22;49473;50.772;8.768;2023-07-28T01:54:52;16.30;99.90
2387;DHT22;49473;50.772;8.768;2023-07-28T01:57:19;16.40;99.90
2387;DHT22;49473;50.772;8.768;2023-07-28T01:59:46;16.30;99.90
2387;DHT22;49473;50.772;8.768;2023-07-28T02:02:14;16.40;99.90
2387;DHT22;49473;50.772;8.768;2023-07-28T02:04:41;16.30;99.90
2387;DHT22;49473;50.772;8.768;2023-07-28T02:07:08;16.40;99.90
2387;DHT22;49473;50.772;8.768;2023-07-28T02:09:35;16.40;99.90
2387;DHT22;49473;50.772;8.768;2023-07-28T02:12:01;16.40;99.90
2387;DHT22;49473;50.772;8.768;2023-07-28T02:14:28;16.40;99.90
2387;DHT22;49473;50.772;8.768;2023-07-28T02:16:55;16.40;99.90
2387;DHT22;49473;50.772;8.768;2023-07-28T02:19:24;16.40;99.90
2387;DHT22;49473;50.772;8.768;2023-07-28T02:21:51;16.50;99.90
2387;DHT22;49473;50.772;8.768;2023-07-28T02:24:18;16.50;99.90
2387;DHT22;49473;50.772;8.768;2023-07-28T02:26:44;16.50;99.90
2387;DHT22;49473;50.772;8.768;2023-07-28T02:29:11;16.50;99.90
2387;DHT22;49473;50.772;8.768;2023-07-28T02:31:38;16.50;99.90
2387;DHT22;49473;50.772;8.768;2023-07-28T02:34:05;16.50;99.90
2387;DHT22;49473;50.772;8.768;2023-07-28T02:36:33;16.50;99.90
2387;DHT22;49473;50.772;8.768;2023-07-28T02:38:59;16.50;99.90
2387;DHT22;49473;50.772;8.768;2023-07-28T02:41:26;16.50;99.90
2387;DHT22;49473;50.772;8.768;2023-07-28T02:43:53;16.50;99.90
2387;DHT22;49473;50.772;8.768;2023-07-28T02:46:20;16.50;99.90
2387;DHT22;49473;50.772;8.768;2023-07-28T02:48:47;16.50;99.90
2387;DHT22;49473;50.772;8.768;2023-07-28T02:51:14;16.50;99.90
2387;DHT22;49473;50.772;8.768;2023-07-28T02:53:42;16.50;99.90
2387;DHT22;49473;50.772;8.768;2023-07-28T02:56:09;16.50;99.90
2387;DHT22;49473;50.772;8.768;2023-07-28T02:58:36;16.50;99.90
2387;DHT22;49473;50.772;8.768;2023-07-28T03:01:02;16.50;99.90
2387;DHT22;49473;50.772;8.768;2023-07-28T03:03:30;16.50;99.90
2387;DHT22;49473;50.772;8.768;2023-07-28T03:05:56;16.60;99.90
2387;DHT22;49473;50.772;8.768;2023-07-28T03:08:23;16.60;99.90
2387;DHT22;49473;50.772;8.768;2023-07-28T03:10:56;16.50;99.90
2387;DHT22;49473;50.772;8.768;2023-07-28T03:13:23;16.60;99.90
2387;DHT22;49473;50.772;8.768;2023-07-28T03:15:49;16.60;99.90
2387;DHT22;49473;50.772;8.768;2023-07-28T03:18:16;16.60;99.90
2387;DHT22;49473;50.772;8.768;2023-07-28T03:20:43;16.70;99.90
2387;DHT22;49473;50.772;8.768;2023-07-28T03:23:10;16.60;99.90
2387;DHT22;49473;50.772;8.768;2023-07-28T03:25:36;16.60;99.90
2387;DHT22;49473;50.772;8.768;2023-07-28T03:28:04;16.60;99.90
2387;DHT22;49473;50.772;8.768;2023-07-28T03:30:31;16.60;99.90
2387;DHT22;49473;50.772;8.768;2023-07-28T03:32:58;16.60;99.90
2387;DHT22;49473;50.772;8.768;2023-07-28T03:35:25;16.60;99.90
2387;DHT22;49473;50.772;8.768;2023-07-28T03:37:51;16.60;99.90
2387;DHT22;49473;50.772;8.768;2023-07-28T03:40:18;16.60;99.90
2387;DHT22;49473;50.772;8.768;2023-07-28T03:42:45;16.60;99.90
2387;DHT22;49473;50.772;8.768;2023-07-28T03:45:13;16.60;99.90
2387;DHT22;49473;50.772;8.768;2023-07-28T03:47:40;16.60;99.90
2387;DHT22;49473;50.772;8.768;2023-07-28T03:50:07;16.60;99.90
2387;DHT22;49473;50.772;8.768;2023-07-28T03:52:34;16.60;99.90
2387;DHT22;49473;50.772;8.768;2023-07-28T03:55:01;16.60;99.90
2387;DHT22;49473;50.772;8.768;2023-07-28T03:57:28;16.50;99.90
2387;DHT22;49473;50.772;8.768;2023-07-28T03:59:55;16.50;99.90
2387;DHT22;49473;50.772;8.768;2023-07-28T04:02:23;16.50;99.90
2387;DHT22;49473;50.772;8.768;2023-07-28T04:04:53;16.50;99.90
2387;DHT22;49473;50.772;8.768;2023-07-28T04:07:21;16.50;99.90
2387;DHT22;49473;50.772;8.768;2023-07-28T04:09:47;16.50;99.90
2387;DHT22;49473;50.772;8.768;2023-07-28T04:12:14;16.50;99.90
2387;DHT22;49473;50.772;8.768;2023-07-28T04:14:41;16.50;99.90
2387;DHT22;49473;50.772;8.768;2023-07-28T04:17:08;16.50;99.90
2387;DHT22;49473;50.772;8.768;2023-07-28T04:19:36;16.50;99.90
2387;DHT22;49473;50.772;8.768;2023-07-28T04:22:03;16.50;99.90
2387;DHT22;49473;50.772;8.768;2023-07-28T04:24:30;16.60;99.90
2387;DHT22;49473;50.772;8.768;2023-07-28T04:26:57;16.70;99.90
2387;DHT22;49473;50.772;8.768;2023-07-28T04:29:24;16.70;99.90
2387;DHT22;49473;50.772;8.768;2023-07-28T04:31:52;16.80;99.90
2387;DHT22;49473;50.772;8.768;2023-07-28T04:34:19;16.80;99.90
2387;DHT22;49473;50.772;8.768;2023-07-28T04:36:48;16.90;99.90
2387;DHT22;49473;50.772;8.768;2023-07-28T04:39:14;17.00;99.90
2387;DHT22;49473;50.772;8.768;2023-07-28T04:41:41;17.00;99.90
2387;DHT22;49473;50.772;8.768;2023-07-28T04:44:08;17.00;99.90
2387;DHT22;49473;50.772;8.768;2023-07-28T04:46:35;17.00;99.90
2387;DHT22;49473;50.772;8.768;2023-07-28T04:49:01;16.90;99.90
2387;DHT22;49473;50.772;8.768;2023-07-28T04:51:28;17.00;99.90
2387;DHT22;49473;50.772;8.768;2023-07-28T04:53:56;17.00;99.90
2387;DHT22;49473;50.772;8.768;2023-07-28T04:56:23;17.00;99.90
2387;DHT22;49473;50.772;8.768;2023-07-28T04:58:49;17.10;99.90
2387;DHT22;49473;50.772;8.768;2023-07-28T05:01:16;17.10;99.90
2387;DHT22;49473;50.772;8.768;2023-07-28T05:03:43;17.10;99.90
2387;DHT22;49473;50.772;8.768;2023-07-28T05:06:10;17.10;99.90
2387;DHT22;49473;50.772;8.768;2023-07-28T05:08:37;17.10;99.90
2387;DHT22;49473;50.772;8.768;2023-07-28T05:11:05;17.10;99.90
2387;DHT22;49473;50.772;8.768;2023-07-28T05:13:32;17.20;99.90
2387;DHT22;49473;50.772;8.768;2023-07-28T05:15:58;17.20;99.90
2387;DHT22;49473;50.772;8.768;2023-07-28T05:18:25;17.20;99.90
2387;DHT22;49473;50.772;8.768;2023-07-28T05:20:52;17.30;99.90
2387;DHT22;49473;50.772;8.768;2023-07-28T05:23:19;17.40;99.90
2387;DHT22;49473;50.772;8.768;2023-07-28T05:25:45;17.50;99.90
2387;DHT22;49473;50.772;8.768;2023-07-28T05:28:14;17.50;99.90
2387;DHT22;49473;50.772;8.768;2023-07-28T05:30:40;17.60;99.90
2387;DHT22;49473;50.772;8.768;2023-07-28T05:33:07;17.60;99.90
2387;DHT22;49473;50.772;8.768;2023-07-28T05:35:34;17.60;99.90
2387;DHT22;49473;50.772;8.768;2023-07-28T05:38:01;17.70;99.90
2387;DHT22;49473;50.772;8.768;2023-07-28T05:40:27;17.80;99.90
2387;DHT22;49473;50.772;8.768;2023-07-28T05:42:54;17.80;99.90
2387;DHT22;49473;50.772;8.768;2023-07-28T05:45:22;17.80;99.90
2387;DHT22;49473;50.772;8.768;2023-07-28T05:47:49;17.80;99.90
2387;DHT22;49473;50.772;8.768;2023-07-28T05:50:16;17.80;99.90
2387;DHT22;49473;50.772;8.768;2023-07-28T05:52:43;17.80;99.90
2387;DHT22;49473;50.772;8.768;2023-07-28T05:55:10;17.80;99.90
2387;DHT22;49473;50.772;8.768;2023-07-28T05:57:37;17.80;99.90
2387;DHT22;49473;50.772;8.768;2023-07-28T06:00:05;17.90;99.90
2387;DHT22;49473;50.772;8.768;2023-07-28T06:02:36;17.80;99.90
2387;DHT22;49473;50.772;8.768;2023-07-28T06:05:03;18.00;99.90
2387;DHT22;49473;50.772;8.768;2023-07-28T06:07:30;18.10;99.90
2387;DHT22;49473;50.772;8.768;2023-07-28T06:09:57;18.20;99.90
2387;DHT22;49473;50.772;8.768;2023-07-28T06:12:24;18.30;99.90
2387;DHT22;49473;50.772;8.768;2023-07-28T06:14:51;18.50;99.90
2387;DHT22;49473;50.772;8.768;2023-07-28T06:17:17;18.70;99.90
2387;DHT22;49473;50.772;8.768;2023-07-28T06:19:45;18.80;99.90
2387;DHT22;49473;50.772;8.768;2023-07-28T06:22:12;18.90;99.90
2387;DHT22;49473;50.772;8.768;2023-07-28T06:24:39;19.00;99.90
2387;DHT22;49473;50.772;8.768;2023-07-28T06:27:05;19.10;99.90
2387;DHT22;49473;50.772;8.768;2023-07-28T06:29:34;19.10;99.90
2387;DHT22;49473;50.772;8.768;2023-07-28T06:32:01;19.20;99.90
2387;DHT22;49473;50.772;8.768;2023-07-28T06:34:28;19.30;99.90
2387;DHT22;49473;50.772;8.768;2023-07-28T06:36:56;19.40;99.90
2387;DHT22;49473;50.772;8.768;2023-07-28T06:39:23;19.40;99.90
2387;DHT22;49473;50.772;8.768;2023-07-28T06:41:50;19.40;99.90
2387;DHT22;49473;50.772;8.768;2023-07-28T06:44:17;19.40;99.90
2387;DHT22;49473;50.772;8.768;2023-07-28T06:46:44;19.40;99.90
2387;DHT22;49473;50.772;8.768;2023-07-28T06:49:10;19.40;99.90
2387;DHT22;49473;50.772;8.768;2023-07-28T06:51:37;19.70;99.90
2387;DHT22;49473;50.772;8.768;2023-07-28T06:54:05;19.80;99.90
2387;DHT22;49473;50.772;8.768;2023-07-28T06:56:35;19.80;99.90
2387;DHT22;49473;50.772;8.768;2023-07-28T06:59:01;19.90;99.90
2387;DHT22;49473;50.772;8.768;2023-07-28T07:01:29;20.20;99.90
2387;DHT22;49473;50.772;8.768;2023-07-28T07:03:56;20.60;99.90
2387;DHT22;49473;50.772;8.768;2023-07-28T07:06:23;20.90;99.90
2387;DHT22;49473;50.772;8.768;2023-07-28T07:08:50;21.20;99.90
2387;DHT22;49473;50.772;8.768;2023-07-28T07:11:18;21.70;99.90
2387;DHT22;49473;50.772;8.768;2023-07-28T07:13:44;22.10;99.90
2387;DHT22;49473;50.772;8.768;2023-07-28T07:16:14;22.40;99.90
2387;DHT22;49473;50.772;8.768;2023-07-28T07:18:42;22.50;99.90
2387;DHT22;49473;50.772;8.768;2023-07-28T07:21:09;22.80;99.90
2387;DHT22;49473;50.772;8.768;2023-07-28T07:23:35;23.00;99.90
2387;DHT22;49473;50.772;8.768;2023-07-28T07:26:02;22.70;99.90
2387;DHT22;49473;50.772;8.768;2023-07-28T07:28:31;22.30;99.90
2387;DHT22;49473;50.772;8.768;2023-07-28T07:30:58;22.40;99.90
2387;DHT22;49473;50.772;8.768;2023-07-28T07:33:24;22.60;99.90
2387;DHT22;49473;50.772;8.768;2023-07-28T07:35:51;22.70;99.90
2387;DHT22;49473;50.772;8.768;2023-07-28T07:38:18;22.90;99.90
2387;DHT22;49473;50.772;8.768;2023-07-28T07:40:46;22.80;99.90
2387;DHT22;49473;50.772;8.768;2023-07-28T07:43:13;22.50;99.90
2387;DHT22;49473;50.772;8.768;2023-07-28T07:45:46;22.30;99.90
2387;DHT22;49473;50.772;8.768;2023-07-28T07:48:15;22.00;99.90
2387;DHT22;49473;50.772;8.768;2023-07-28T07:50:42;21.60;99.90
2387;DHT22;49473;50.772;8.768;2023-07-28T07:53:09;21.50;99.90
2387;DHT22;49473;50.772;8.768;2023-07-28T07:55:36;21.40;99.90
2387;DHT22;49473;50.772;8.768;2023-07-28T07:58:02;21.30;99.90
2387;DHT22;49473;50.772;8.768;2023-07-28T08:00:30;21.30;99.90
2387;DHT22;49473;50.772;8.768;2023-07-28T08:02:58;21.10;99.90
2387;DHT22;49473;50.772;8.768;2023-07-28T08:05:25;20.80;99.90
2387;DHT22;49473;50.772;8.768;2023-07-28T08:07:51;20.70;99.90
2387;DHT22;49473;50.772;8.768;2023-07-28T08:10:18;20.60;99.90
2387;DHT22;49473;50.772;8.768;2023-07-28T08:12:45;20.50;99.90
2387;DHT22;49473;50.772;8.768;2023-07-28T08:15:12;20.30;99.90
2387;DHT22;49473;50.772;8.768;2023-07-28T08:17:39;20.10;99.90
2387;DHT22;49473;50.772;8.768;2023-07-28T08:20:08;19.90;99.90
2387;DHT22;49473;50.772;8.768;2023-07-28T08:22:35;19.80;99.90
2387;DHT22;49473;50.772;8.768;2023-07-28T08:25:02;19.90;99.90
2387;DHT22;49473;50.772;8.768;2023-07-28T08:27:29;19.90;99.90
2387;DHT22;49473;50.772;8.768;2023-07-28T08:29:56;19.90;99.90
2387;DHT22;49473;50.772;8.768;2023-07-28T08:32:23;19.80;99.90
2387;DHT22;49473;50.772;8.768;2023-07-28T08:34:49;19.90;99.90
2387;DHT22;49473;50.772;8.768;2023-07-28T08:37:17;19.90;99.90
2387;DHT22;49473;50.772;8.768;2023-07-28T08:39:44;20.00;99.90
2387;DHT22;49473;50.772;8.768;2023-07-28T08:42:11;20.10;99.90
2387;DHT22;49473;50.772;8.768;2023-07-28T08:44:38;20.30;99.90
2387;DHT22;49473;50.772;8.768;2023-07-28T08:47:05;20.30;99.90
2387;DHT22;49473;50.772;8.768;2023-07-28T08:49:32;20.30;99.90
2387;DHT22;49473;50.772;8.768;2023-07-28T08:52:02;20.30;99.90
2387;DHT22;49473;50.772;8.768;2023-07-28T08:54:31;20.40;99.90
2387;DHT22;49473;50.772;8.768;2023-07-28T08:56:58;20.60;99.90
2387;DHT22;49473;50.772;8.768;2023-07-28T08:59:26;20.60;99.90
2387;DHT22;49473;50.772;8.768;2023-07-28T09:01:53;20.40;99.90
2387;DHT22;49473;50.772;8.768;2023-07-28T09:04:21;20.30;99.90
2387;DHT22;49473;50.772;8.768;2023-07-28T09:06:48;20.30;99.90
2387;DHT22;49473;50.772;8.768;2023-07-28T09:09:17;20.30;99.90
2387;DHT22;49473;50.772;8.768;2023-07-28T09:11:45;20.40;99.90
2387;DHT22;49473;50.772;8.768;2023-07-28T09:14:15;20.40;99.90
2387;DHT22;49473;50.772;8.768;2023-07-28T09:16:43;20.40;99.90
2387;DHT22;49473;50.772;8.768;2023-07-28T09:19:10;20.40;99.90
2387;DHT22;49473;50.772;8.768;2023-07-28T09:21:38;20.60;99.90
2387;DHT22;49473;50.772;8.768;2023-07-28T09:24:06;20.80;99.90
2387;DHT22;49473;50.772;8.768;2023-07-28T09:26:39;21.00;99.90
2387;DHT22;49473;50.772;8.768;2023-07-28T09:29:15;21.00;99.90
2387;DHT22;49473;50.772;8.768;2023-07-28T09:31:42;21.00;99.90
2387;DHT22;49473;50.772;8.768;2023-07-28T09:34:09;20.90;99.90
2387;DHT22;49473;50.772;8.768;2023-07-28T09:36:37;20.90;99.90
2387;DHT22;49473;50.772;8.768;2023-07-28T09:39:04;20.80;99.90
2387;DHT22;49473;50.772;8.768;2023-07-28T09:41:34;20.80;99.90
2387;DHT22;49473;50.772;8.768;2023-07-28T09:44:02;20.80;99.90
2387;DHT22;49473;50.772;8.768;2023-07-28T09:46:33;20.90;99.90
2387;DHT22;49473;50.772;8.768;2023-07-28T09:49:04;21.10;99.90
2387;DHT22;49473;50.772;8.768;2023-07-28T09:51:31;21.30;99.90
2387;DHT22;49473;50.772;8.768;2023-07-28T09:54:09;21.60;99.90
2387;DHT22;49473;50.772;8.768;2023-07-28T09:56:38;22.00;99.90
2387;DHT22;49473;50.772;8.768;2023-07-28T09:59:09;22.30;99.90
2387;DHT22;49473;50.772;8.768;2023-07-28T10:01:39;22.50;99.90
2387;DHT22;49473;50.772;8.768;2023-07-28T10:04:06;22.70;99.90
2387;DHT22;49473;50.772;8.768;2023-07-28T10:06:33;23.20;99.90
2387;DHT22;49473;50.772;8.768;2023-07-28T10:09:00;24.10;99.90
2387;DHT22;49473;50.772;8.768;2023-07-28T10:11:27;25.20;99.90
2387;DHT22;49473;50.772;8.768;2023-07-28T10:13:54;26.90;99.90
2387;DHT22;49473;50.772;8.768;2023-07-28T10:16:31;28.90;99.90
2387;DHT22;49473;50.772;8.768;2023-07-28T10:19:05;30.10;99.90
2387;DHT22;49473;50.772;8.768;2023-07-28T10:21:32;30.60;99.90
2387;DHT22;49473;50.772;8.768;2023-07-28T10:24:05;29.90;99.90
2387;DHT22;49473;50.772;8.768;2023-07-28T10:26:35;29.80;99.90
2387;DHT22;49473;50.772;8.768;2023-07-28T10:29:12;29.50;99.90
2387;DHT22;49473;50.772;8.768;2023-07-28T10:31:53;28.70;99.90
2387;DHT22;49473;50.772;8.768;2023-07-28T10:34:22;28.30;99.90
2387;DHT22;49473;50.772;8.768;2023-07-28T10:36:56;28.70;99.90
2387;DHT22;49473;50.772;8.768;2023-07-28T10:39:24;28.90;99.90
2387;DHT22;49473;50.772;8.768;2023-07-28T10:42:02;29.10;99.90
2387;DHT22;49473;50.772;8.768;2023-07-28T10:44:30;28.70;99.90
2387;DHT22;49473;50.772;8.768;2023-07-28T10:46:57;28.50;99.90
2387;DHT22;49473;50.772;8.768;2023-07-28T10:49:25;28.20;99.90
2387;DHT22;49473;50.772;8.768;2023-07-28T10:51:52;27.90;99.90
2387;DHT22;49473;50.772;8.768;2023-07-28T10:54:18;27.30;99.90
2387;DHT22;49473;50.772;8.768;2023-07-28T10:56:46;26.50;99.90
2387;DHT22;49473;50.772;8.768;2023-07-28T10:59:14;25.90;99.90
2387;DHT22;49473;50.772;8.768;2023-07-28T11:01:41;25.50;99.90
2387;DHT22;49473;50.772;8.768;2023-07-28T11:04:09;25.30;99.90
2387;DHT22;49473;50.772;8.768;2023-07-28T11:06:40;24.90;99.90
2387;DHT22;49473;50.772;8.768;2023-07-28T11:09:08;24.60;99.90
2387;DHT22;49473;50.772;8.768;2023-07-28T11:11:35;24.30;99.90
2387;DHT22;49473;50.772;8.768;2023-07-28T11:14:02;23.90;99.90
2387;DHT22;49473;50.772;8.768;2023-07-28T11:16:32;23.30;99.90
2387;DHT22;49473;50.772;8.768;2023-07-28T11:19:00;23.00;99.90
2387;DHT22;49473;50.772;8.768;2023-07-28T11:21:27;22.70;99.90
2387;DHT22;49473;50.772;8.768;2023-07-28T11:23:55;22.80;99.90
2387;DHT22;49473;50.772;8.768;2023-07-28T11:26:22;22.90;99.90
2387;DHT22;49473;50.772;8.768;2023-07-28T11:28:49;23.40;99.90
2387;DHT22;49473;50.772;8.768;2023-07-28T11:31:15;23.70;99.90
2387;DHT22;49473;50.772;8.768;2023-07-28T11:33:43;23.80;99.90
2387;DHT22;49473;50.772;8.768;2023-07-28T11:36:09;24.10;99.90
2387;DHT22;49473;50.772;8.768;2023-07-28T11:38:37;24.70;99.90
2387;DHT22;49473;50.772;8.768;2023-07-28T11:41:06;25.20;99.90
2387;DHT22;49473;50.772;8.768;2023-07-28T11:43:34;25.40;99.90
2387;DHT22;49473;50.772;8.768;2023-07-28T11:46:01;25.30;99.90
2387;DHT22;49473;50.772;8.768;2023-07-28T11:48:30;25.50;99.90
2387;DHT22;49473;50.772;8.768;2023-07-28T11:50:57;25.80;99.90
2387;DHT22;49473;50.772;8.768;2023-07-28T11:53:25;26.80;99.90
2387;DHT22;49473;50.772;8.768;2023-07-28T11:55:52;27.30;99.90
2387;DHT22;49473;50.772;8.768;2023-07-28T11:58:20;27.80;99.90
2387;DHT22;49473;50.772;8.768;2023-07-28T12:00:50;28.50;99.90
2387;DHT22;49473;50.772;8.768;2023-07-28T12:03:16;28.50;99.90
2387;DHT22;49473;50.772;8.768;2023-07-28T12:06:04;27.90;99.90
2387;DHT22;49473;50.772;8.768;2023-07-28T12:08:35;28.10;99.90
2387;DHT22;49473;50.772;8.768;2023-07-28T12:11:02;27.80;99.90
2387;DHT22;49473;50.772;8.768;2023-07-28T12:13:30;27.70;99.90
2387;DHT22;49473;50.772;8.768;2023-07-28T12:15:56;27.60;99.90
2387;DHT22;49473;50.772;8.768;2023-07-28T12:18:29;27.50;99.90
2387;DHT22;49473;50.772;8.768;2023-07-28T12:20:56;27.80;99.90
2387;DHT22;49473;50.772;8.768;2023-07-28T12:23:23;28.30;99.90
2387;DHT22;49473;50.772;8.768;2023-07-28T12:25:50;28.60;99.90
2387;DHT22;49473;50.772;8.768;2023-07-28T12:28:19;28.30;99.90
2387;DHT22;49473;50.772;8.768;2023-07-28T12:30:47;27.90;99.90
2387;DHT22;49473;50.772;8.768;2023-07-28T12:33:17;27.50;99.90
2387;DHT22;49473;50.772;8.768;2023-07-28T12:35:44;27.00;99.90
2387;DHT22;49473;50.772;8.768;2023-07-28T12:38:11;26.90;99.90
2387;DHT22;49473;50.772;8.768;2023-07-28T12:40:37;26.90;99.90
2387;DHT22;49473;50.772;8.768;2023-07-28T12:43:04;26.70;99.90
2387;DHT22;49473;50.772;8.768;2023-07-28T12:45:31;26.20;99.90
2387;DHT22;49473;50.772;8.768;2023-07-28T12:48:00;26.00;99.90
2387;DHT22;49473;50.772;8.768;2023-07-28T12:50:26;25.80;99.90
2387;DHT22;49473;50.772;8.768;2023-07-28T12:52:53;25.70;99.90
2387;DHT22;49473;50.772;8.768;2023-07-28T12:55:21;25.90;99.90
2387;DHT22;49473;50.772;8.768;2023-07-28T12:57:47;26.10;99.90
2387;DHT22;49473;50.772;8.768;2023-07-28T13:00:15;26.10;99.90
2387;DHT22;49473;50.772;8.768;2023-07-28T13:02:43;26.20;99.90
2387;DHT22;49473;50.772;8.768;2023-07-28T13:05:12;26.30;99.90
2387;DHT22;49473;50.772;8.768;2023-07-28T13:07:40;25.90;99.90
2387;DHT22;49473;50.772;8.768;2023-07-28T13:10:09;26.00;99.90
2387;DHT22;49473;50.772;8.768;2023-07-28T13:12:36;27.10;99.90
2387;DHT22;49473;50.772;8.768;2023-07-28T13:15:04;28.40;99.90
2387;DHT22;49473;50.772;8.768;2023-07-28T13:17:31;29.00;99.90
2387;DHT22;49473;50.772;8.768;2023-07-28T13:19:57;29.20;99.90
2387;DHT22;49473;50.772;8.768;2023-07-28T13:22:26;29.40;99.90
2387;DHT22;49473;50.772;8.768;2023-07-28T13:24:52;29.90;99.90
2387;DHT22;49473;50.772;8.768;2023-07-28T13:27:19;30.20;99.90
2387;DHT22;49473;50.772;8.768;2023-07-28T13:29:46;30.40;99.90
2387;DHT22;49473;50.772;8.768;2023-07-28T13:32:17;30.50;99.90
2387;DHT22;49473;50.772;8.768;2023-07-28T13:34:44;30.50;99.90
2387;DHT22;49473;50.772;8.768;2023-07-28T13:37:11;29.80;99.90
2387;DHT22;49473;50.772;8.768;2023-07-28T13:39:39;29.20;99.90
2387;DHT22;49473;50.772;8.768;2023-07-28T13:42:06;28.90;99.90
2387;DHT22;49473;50.772;8.768;2023-07-28T13:44:33;28.60;99.90
2387;DHT22;49473;50.772;8.768;2023-07-28T13:46:59;28.40;99.90
2387;DHT22;49473;50.772;8.768;2023-07-28T13:49:26;27.70;99.90
2387;DHT22;49473;50.772;8.768;2023-07-28T13:51:53;27.30;99.90
2387;DHT22;49473;50.772;8.768;2023-07-28T13:54:19;27.30;99.90
2387;DHT22;49473;50.772;8.768;2023-07-28T13:56:48;27.00;99.90
2387;DHT22;49473;50.772;8.768;2023-07-28T13:59:14;26.40;99.90
2387;DHT22;49473;50.772;8.768;2023-07-28T14:01:41;26.20;99.90
2387;DHT22;49473;50.772;8.768;2023-07-28T14:04:08;26.10;99.90
2387;DHT22;49473;50.772;8.768;2023-07-28T14:06:34;25.80;99.90
2387;DHT22;49473;50.772;8.768;2023-07-28T14:09:01;25.60;99.90
2387;DHT22;49473;50.772;8.768;2023-07-28T14:11:28;25.10;99.90
2387;DHT22;49473;50.772;8.768;2023-07-28T14:13:56;24.60;99.90
2387;DHT22;49473;50.772;8.768;2023-07-28T14:16:23;24.00;99.90
2387;DHT22;49473;50.772;8.768;2023-07-28T14:18:50;23.50;99.90
2387;DHT22;49473;50.772;8.768;2023-07-28T14:21:16;23.10;99.90
2387;DHT22;49473;50.772;8.768;2023-07-28T14:23:43;23.00;99.90
2387;DHT22;49473;50.772;8.768;2023-07-28T14:26:10;23.00;99.90
2387;DHT22;49473;50.772;8.768;2023-07-28T14:28:37;23.00;99.90
2387;DHT22;49473;50.772;8.768;2023-07-28T14:31:05;23.10;99.90
2387;DHT22;49473;50.772;8.768;2023-07-28T14:33:32;23.00;99.90
2387;DHT22;49473;50.772;8.768;2023-07-28T14:35:59;22.90;99.90
2387;DHT22;49473;50.772;8.768;2023-07-28T14:38:26;22.90;99.90
2387;DHT22;49473;50.772;8.768;2023-07-28T14:40:53;23.20;99.90
2387;DHT22;49473;50.772;8.768;2023-07-28T14:43:19;23.50;99.90
2387;DHT22;49473;50.772;8.768;2023-07-28T14:45:49;23.60;99.90
2387;DHT22;49473;50.772;8.768;2023-07-28T14:48:17;24.00;99.90
2387;DHT22;49473;50.772;8.768;2023-07-28T14:50:44;24.00;99.90
2387;DHT22;49473;50.772;8.768;2023-07-28T14:53:31;23.90;99.90
2387;DHT22;49473;50.772;8.768;2023-07-28T14:55:59;23.60;99.90
2387;DHT22;49473;50.772;8.768;2023-07-28T14:58:26;23.20;99.90
2387;DHT22;49473;50.772;8.768;2023-07-28T15:00:53;23.10;99.90
2387;DHT22;49473;50.772;8.768;2023-07-28T15:03:22;22.80;99.90
2387;DHT22;49473;50.772;8.768;2023-07-28T15:05:48;22.80;99.90
2387;DHT22;49473;50.772;8.768;2023-07-28T15:08:15;22.80;99.90
2387;DHT22;49473;50.772;8.768;2023-07-28T15:10:42;22.80;99.90
2387;DHT22;49473;50.772;8.768;2023-07-28T15:13:09;22.30;99.90
2387;DHT22;49473;50.772;8.768;2023-07-28T15:15:36;22.10;99.90
2387;DHT22;49473;50.772;8.768;2023-07-28T15:18:02;21.90;99.90
2387;DHT22;49473;50.772;8.768;2023-07-28T15:20:30;21.70;99.90
2387;DHT22;49473;50.772;8.768;2023-07-28T15:22:57;21.60;99.90
2387;DHT22;49473;50.772;8.768;2023-07-28T15:25:24;21.60;99.90
2387;DHT22;49473;50.772;8.768;2023-07-28T15:27:51;21.60;99.90
2387;DHT22;49473;50.772;8.768;2023-07-28T15:30:18;21.50;99.90
2387;DHT22;49473;50.772;8.768;2023-07-28T15:32:45;21.50;99.90
2387;DHT22;49473;50.772;8.768;2023-07-28T15:35:12;21.50;99.90
2387;DHT22;49473;50.772;8.768;2023-07-28T15:37:40;21.50;99.90
2387;DHT22;49473;50.772;8.768;2023-07-28T15:40:07;21.40;99.90
2387;DHT22;49473;50.772;8.768;2023-07-28T15:42:34;21.50;99.90
2387;DHT22;49473;50.772;8.768;2023-07-28T15:45:01;21.40;99.90
2387;DHT22;49473;50.772;8.768;2023-07-28T15:47:28;21.40;99.90